createdAt,value
2023-03-05T00:01:16.512Z,99636.33
2023-03-05T00:03:43.674Z,99635.64
2023-03-05T00:06:10.874Z,99635.55
2023-03-05T00:08:38.152Z,99628.52
2023-03-05T00:11:09.276Z,99627.73
2023-03-05T00:13:37.026Z,99623.17
2023-03-05T00:16:09.365Z,99618.51
2023-03-05T00:18:37.324Z,99615.40
2023-03-05T00:21:05.225Z,99611.60
2023-03-05T00:23:32.290Z,99606.80
2023-03-05T00:26:02.565Z,99598.55
2023-03-05T00:28:29.817Z,99589.95
2023-03-05T00:31:01.317Z,99590.25
2023-03-05T00:33:28.534Z,99587.09
2023-03-05T00:35:55.660Z,99588.67
2023-03-05T00:38:22.878Z,99588.27
2023-03-05T00:40:50.926Z,99579.47
2023-03-05T00:43:18.048Z,99576.23
2023-03-05T00:45:45.146Z,99580.79
2023-03-05T00:48:12.688Z,99582.45
2023-03-05T00:50:39.820Z,99578.69
2023-03-05T00:53:06.937Z,99578.41
2023-03-05T00:55:36.210Z,99581.09
2023-03-05T00:58:03.605Z,99575.72
2023-03-05T01:00:30.820Z,99578.97
2023-03-05T01:02:58.071Z,99573.01
2023-03-05T01:05:26.647Z,99568.08
2023-03-05T01:07:55.820Z,99561.95
2023-03-05T01:10:28.035Z,99558.95
2023-03-05T01:12:55.463Z,99557.73
2023-03-05T01:15:23.870Z,99555.77
2023-03-05T01:17:51.302Z,99551.69
2023-03-05T01:20:21.337Z,99552.00
2023-03-05T01:22:49.132Z,99550.11
2023-03-05T01:25:17.427Z,99546.39
2023-03-05T01:27:44.984Z,99546.52
2023-03-05T01:30:14.382Z,99547.22
2023-03-05T01:32:41.715Z,99550.33
2023-03-05T01:35:10.915Z,99548.91
2023-03-05T01:37:38.048Z,99545.95
2023-03-05T01:40:06.256Z,99544.07
2023-03-05T01:42:34.416Z,99542.73
2023-03-05T01:45:02.401Z,99538.52
2023-03-05T01:47:29.999Z,99539.98
2023-03-05T01:49:57.766Z,99537.90
2023-03-05T01:52:25.578Z,99536.27
2023-03-05T01:54:52.739Z,99532.85
2023-03-05T01:57:25.024Z,99531.35
2023-03-05T01:59:58.277Z,99527.23
2023-03-05T02:02:25.929Z,99522.27
2023-03-05T02:05:03.090Z,99515.80
2023-03-05T02:07:31.623Z,99519.78
2023-03-05T02:09:59.758Z,99516.89
2023-03-05T02:12:26.824Z,99514.67
2023-03-05T02:14:59.444Z,99513.71
2023-03-05T02:17:30.600Z,99510.12
2023-03-05T02:20:06.351Z,99506.08
2023-03-05T02:22:33.519Z,99505.23
2023-03-05T02:25:00.602Z,99504.64
2023-03-05T02:27:35.893Z,99503.27
2023-03-05T02:30:03.487Z,99496.10
2023-03-05T02:32:30.614Z,99497.55
2023-03-05T02:34:57.729Z,99492.29
2023-03-05T02:37:24.901Z,99490.83
2023-03-05T02:39:52.232Z,99488.70
2023-03-05T02:42:19.486Z,99486.59
2023-03-05T02:44:46.634Z,99486.40
2023-03-05T02:47:13.801Z,99486.02
2023-03-05T02:49:40.915Z,99484.45
2023-03-05T02:52:08.251Z,99482.66
2023-03-05T02:54:35.281Z,99486.77
2023-03-05T02:57:03.854Z,99483.04
2023-03-05T02:59:31.034Z,99481.20
2023-03-05T03:01:58.355Z,99478.30
2023-03-05T03:04:26.042Z,99477.35
2023-03-05T03:06:53.299Z,99476.19
2023-03-05T03:09:20.706Z,99476.05
2023-03-05T03:11:47.923Z,99473.95
2023-03-05T03:14:15.078Z,99472.98
2023-03-05T03:16:42.325Z,99470.56
2023-03-05T03:19:09.562Z,99467.23
2023-03-05T03:21:36.694Z,99468.48
2023-03-05T03:24:04.095Z,99462.86
2023-03-05T03:26:32.033Z,99462.02
2023-03-05T03:28:59.242Z,99462.29
2023-03-05T03:31:26.342Z,99462.58
2023-03-05T03:33:53.466Z,99459.33
2023-03-05T03:36:20.568Z,99457.67
2023-03-05T03:38:47.664Z,99453.27
2023-03-05T03:41:14.827Z,99449.04
2023-03-05T03:43:41.973Z,99446.27
2023-03-05T03:46:09.170Z,99440.86
2023-03-05T03:48:36.551Z,99439.96
2023-03-05T03:51:07.303Z,99436.48
2023-03-05T03:53:34.705Z,99437.48
2023-03-05T03:56:02.209Z,99428.31
2023-03-05T03:58:29.354Z,99429.15
2023-03-05T04:00:56.354Z,99425.69
2023-03-05T04:03:23.475Z,99422.91
2023-03-05T04:05:50.559Z,99421.10
2023-03-05T04:08:17.698Z,99415.27
2023-03-05T04:10:45.002Z,99412.64
2023-03-05T04:13:12.182Z,99412.13
2023-03-05T04:15:39.855Z,99410.15
2023-03-05T04:18:06.993Z,99405.73
2023-03-05T04:20:34.143Z,99405.39
2023-03-05T04:23:01.310Z,99398.10
2023-03-05T04:25:28.445Z,99390.34
2023-03-05T04:27:55.876Z,99390.55
2023-03-05T04:30:22.912Z,99382.30
2023-03-05T04:32:50.076Z,99367.92
2023-03-05T04:35:17.292Z,99361.11
2023-03-05T04:37:44.909Z,99363.65
2023-03-05T04:40:12.488Z,99358.90
2023-03-05T04:42:39.672Z,99354.70
2023-03-05T04:45:08.027Z,99348.33
2023-03-05T04:47:35.470Z,99345.19
2023-03-05T04:50:04.528Z,99347.34
2023-03-05T04:52:31.859Z,99344.48
2023-03-05T04:54:59.088Z,99343.27
2023-03-05T04:57:26.251Z,99340.00
2023-03-05T04:59:53.387Z,99336.57
2023-03-05T05:02:20.482Z,99335.73
2023-03-05T05:04:47.530Z,99329.80
2023-03-05T05:07:14.619Z,99320.25
2023-03-05T05:09:41.687Z,99311.38
2023-03-05T05:12:10.534Z,99301.69
2023-03-05T05:14:37.666Z,99296.36
2023-03-05T05:17:05.360Z,99302.23
2023-03-05T05:19:34.409Z,99307.48
2023-03-05T05:22:02.362Z,99314.77
2023-03-05T05:24:29.474Z,99318.63
2023-03-05T05:26:57.011Z,99323.77
2023-03-05T05:29:24.158Z,99320.27
2023-03-05T05:31:51.323Z,99321.35
2023-03-05T05:34:18.559Z,99323.69
2023-03-05T05:36:45.649Z,99322.65
2023-03-05T05:39:12.761Z,99322.27
2023-03-05T05:41:39.843Z,99332.30
2023-03-05T05:44:07.115Z,99330.73
2023-03-05T05:46:34.319Z,99332.10
2023-03-05T05:49:01.668Z,99326.92
2023-03-05T05:51:28.807Z,99330.80
2023-03-05T05:53:55.989Z,99328.95
2023-03-05T05:56:23.050Z,99323.42
2023-03-05T05:58:50.536Z,99318.28
2023-03-05T06:01:25.320Z,99316.28
2023-03-05T06:03:52.724Z,99312.52
2023-03-05T06:06:22.592Z,99311.14
2023-03-05T06:08:49.892Z,99309.43
2023-03-05T06:11:19.330Z,99312.95
2023-03-05T06:13:47.826Z,99307.16
2023-03-05T06:16:18.212Z,99308.54
2023-03-05T06:18:45.520Z,99307.42
2023-03-05T06:21:15.376Z,99308.25
2023-03-05T06:23:43.391Z,99303.00
2023-03-05T06:26:12.740Z,99307.02
2023-03-05T06:28:40.050Z,99307.91
2023-03-05T06:31:13.399Z,99311.09
2023-03-05T06:33:42.054Z,99312.37
2023-03-05T06:36:13.310Z,99316.88
2023-03-05T06:38:40.510Z,99318.38
2023-03-05T06:41:11.650Z,99317.77
2023-03-05T06:43:41.147Z,99317.10
2023-03-05T06:46:14.395Z,99313.75
2023-03-05T06:48:43.396Z,99312.63
2023-03-05T06:51:27.695Z,99311.01
2023-03-05T06:53:56.583Z,99312.32
2023-03-05T06:56:23.583Z,99309.56
2023-03-05T06:58:51.770Z,99304.05
2023-03-05T07:01:20.846Z,99307.64
2023-03-05T07:03:55.048Z,99305.60
2023-03-05T07:06:22.794Z,99303.98
2023-03-05T07:08:50.669Z,99305.61
2023-03-05T07:11:20.450Z,99305.30
2023-03-05T07:13:48.153Z,99304.11
2023-03-05T07:16:21.820Z,99306.66
2023-03-05T07:18:49.645Z,99307.41
2023-03-05T07:21:25.867Z,99306.27
2023-03-05T07:23:54.582Z,99305.63
2023-03-05T07:26:22.355Z,99306.33
2023-03-05T07:28:49.565Z,99306.48
2023-03-05T07:31:19.655Z,99311.23
2023-03-05T07:33:49.452Z,99306.02
2023-03-05T07:36:17.912Z,99305.31
2023-03-05T07:38:45.624Z,99304.40
2023-03-05T07:41:19.827Z,99301.14
2023-03-05T07:43:49.388Z,99300.44
2023-03-05T07:46:18.455Z,99298.70
2023-03-05T07:48:45.811Z,99302.02
2023-03-05T07:51:16.050Z,99301.58
2023-03-05T07:53:44.218Z,99304.10
2023-03-05T07:56:11.648Z,99301.86
2023-03-05T07:58:38.822Z,99300.11
2023-03-05T08:01:15.574Z,99301.80
2023-03-05T08:03:43.737Z,99299.95
2023-03-05T08:06:12.466Z,99301.13
2023-03-05T08:08:39.764Z,99300.84
2023-03-05T08:11:09.678Z,99298.77
2023-03-05T08:13:37.573Z,99298.33
2023-03-05T08:16:06.530Z,99296.69
2023-03-05T08:18:34.072Z,99295.94
2023-03-05T08:21:01.913Z,99297.12
2023-03-05T08:23:29.416Z,99295.43
2023-03-05T08:25:56.887Z,99289.63
2023-03-05T08:28:24.131Z,99290.13
2023-03-05T08:30:51.349Z,99286.89
2023-03-05T08:33:18.721Z,99288.30
2023-03-05T08:35:46.352Z,99287.60
2023-03-05T08:38:13.703Z,99288.30
2023-03-05T08:40:40.753Z,99284.46
2023-03-05T08:43:07.740Z,99280.28
2023-03-05T08:45:34.833Z,99281.55
2023-03-05T08:48:01.914Z,99280.70
2023-03-05T08:50:28.987Z,99274.33
2023-03-05T08:52:57.129Z,99274.14
2023-03-05T08:55:24.258Z,99275.39
2023-03-05T08:57:51.352Z,99280.26
2023-03-05T09:00:18.993Z,99281.84
2023-03-05T09:02:46.484Z,99283.36
2023-03-05T09:05:13.915Z,99279.46
2023-03-05T09:07:41.235Z,99280.91
2023-03-05T09:10:11.540Z,99276.20
2023-03-05T09:12:38.656Z,99280.77
2023-03-05T09:15:08.439Z,99277.42
2023-03-05T09:17:37.164Z,99273.39
2023-03-05T09:20:06.567Z,99273.11
2023-03-05T09:22:33.734Z,99273.33
2023-03-05T09:25:00.912Z,99275.92
2023-03-05T09:27:27.964Z,99274.83
2023-03-05T09:29:55.748Z,99273.58
2023-03-05T09:32:22.824Z,99271.52
2023-03-05T09:34:49.878Z,99268.63
2023-03-05T09:37:17.073Z,99269.40
2023-03-05T09:39:44.401Z,99268.56
2023-03-05T09:42:45.868Z,99267.64
2023-03-05T09:45:27.428Z,99267.69
2023-03-05T09:48:20.595Z,99268.84
2023-03-05T09:50:50.781Z,99267.80
2023-03-05T09:53:33.138Z,99264.18
2023-03-05T09:56:04.848Z,99261.91
2023-03-05T09:59:04.332Z,99259.83
2023-03-05T10:01:39.682Z,99256.98
2023-03-05T10:04:28.808Z,99253.05
2023-03-05T10:07:00.766Z,99252.27
2023-03-05T10:09:43.054Z,99250.12
2023-03-05T10:12:25.442Z,99249.70
2023-03-05T10:14:52.684Z,99247.36
2023-03-05T10:17:41.913Z,99246.62
2023-03-05T10:20:24.189Z,99243.96
2023-03-05T10:23:19.666Z,99244.09
2023-03-05T10:26:08.624Z,99239.95
2023-03-05T10:28:52.737Z,99240.19
2023-03-05T10:31:28.888Z,99241.60
2023-03-05T10:34:16.333Z,99232.77
2023-03-05T10:37:27.126Z,99235.25
2023-03-05T10:40:11.044Z,99234.51
2023-03-05T10:42:52.994Z,99234.34
2023-03-05T10:45:39.311Z,99229.93
2023-03-05T10:48:15.819Z,99231.23
2023-03-05T10:50:52.645Z,99222.60
2023-03-05T10:53:31.950Z,99221.80
2023-03-05T10:56:04.061Z,99220.73
2023-03-05T10:58:31.806Z,99221.41
2023-03-05T11:01:11.148Z,99218.58
2023-03-05T11:03:55.495Z,99216.73
2023-03-05T11:06:30.071Z,99214.88
2023-03-05T11:09:18.072Z,99215.02
2023-03-05T11:12:04.645Z,99215.17
2023-03-05T11:14:33.699Z,99215.41
2023-03-05T11:17:02.528Z,99213.03
2023-03-05T11:19:34.611Z,99211.94
2023-03-05T11:22:06.883Z,99208.59
2023-03-05T11:24:34.070Z,99206.48
2023-03-05T11:27:01.357Z,99204.84
2023-03-05T11:29:32.082Z,99201.16
2023-03-05T11:32:20.389Z,99201.29
2023-03-05T11:34:47.627Z,99200.00
2023-03-05T11:37:26.758Z,99198.73
2023-03-05T11:40:22.628Z,99197.95
2023-03-05T11:42:56.106Z,99195.63
2023-03-05T11:45:25.286Z,99199.33
2023-03-05T11:48:21.716Z,99196.40
2023-03-05T11:51:01.546Z,99190.23
2023-03-05T11:53:32.375Z,99196.77
2023-03-05T11:56:05.520Z,99194.67
2023-03-05T11:59:00.479Z,99193.17
2023-03-05T12:01:31.592Z,99191.42
2023-03-05T12:04:00.261Z,99186.60
2023-03-05T12:06:42.648Z,99187.59
2023-03-05T12:09:29.858Z,99184.13
2023-03-05T12:12:25.041Z,99180.65
2023-03-05T12:15:15.290Z,99178.12
2023-03-05T12:18:04.070Z,99180.01
2023-03-05T12:20:57.204Z,99170.70
2023-03-05T12:23:27.068Z,99171.27
2023-03-05T12:25:57.893Z,99169.67
2023-03-05T12:28:34.345Z,99169.64
2023-03-05T12:31:06.305Z,99167.17
2023-03-05T12:33:44.382Z,99163.27
2023-03-05T12:36:17.795Z,99161.94
2023-03-05T12:38:47.765Z,99157.13
2023-03-05T12:41:25.448Z,99155.66
2023-03-05T12:44:06.403Z,99151.45
2023-03-05T12:46:35.887Z,99151.44
2023-03-05T12:49:18.441Z,99148.58
2023-03-05T12:51:51.034Z,99140.71
2023-03-05T12:54:32.708Z,99141.21
2023-03-05T12:57:15.030Z,99140.35
2023-03-05T13:00:00.454Z,99135.15
2023-03-05T13:02:31.316Z,99135.94
2023-03-05T13:05:07.579Z,99133.23
2023-03-05T13:07:35.082Z,99130.98
2023-03-05T13:10:02.226Z,99132.96
2023-03-05T13:12:31.067Z,99131.62
2023-03-05T13:15:14.705Z,99131.34
2023-03-05T13:17:57.095Z,99134.60
2023-03-05T13:20:34.416Z,99135.38
2023-03-05T13:23:24.352Z,99131.83
2023-03-05T13:26:13.263Z,99136.63
2023-03-05T13:28:41.931Z,99134.45
2023-03-05T13:31:18.770Z,99133.63
2023-03-05T13:33:56.024Z,99126.23
2023-03-05T13:36:25.879Z,99129.67
2023-03-05T13:38:53.908Z,99127.06
2023-03-05T13:41:24.895Z,99126.93
2023-03-05T13:44:01.202Z,99125.58
2023-03-05T13:46:39.022Z,99123.58
2023-03-05T13:49:35.347Z,99122.63
2023-03-05T13:52:03.097Z,99126.75
2023-03-05T13:54:31.032Z,99124.80
2023-03-05T13:57:01.974Z,99121.52
2023-03-05T13:59:34.137Z,99124.58
2023-03-05T14:02:06.096Z,99122.53
2023-03-05T14:04:37.766Z,99126.14
2023-03-05T14:07:07.684Z,99120.63
2023-03-05T14:09:37.639Z,99118.77
2023-03-05T14:12:07.530Z,99123.04
2023-03-05T14:14:38.064Z,99122.77
2023-03-05T14:17:23.774Z,99124.75
2023-03-05T14:19:50.940Z,99133.08
2023-03-05T14:22:36.487Z,99141.11
2023-03-05T14:25:05.753Z,99140.55
2023-03-05T14:27:36.820Z,99143.03
2023-03-05T14:30:06.308Z,99135.11
2023-03-05T14:32:36.385Z,99144.75
2023-03-05T14:35:06.116Z,99143.27
2023-03-05T14:37:36.922Z,99139.63
2023-03-05T14:40:10.118Z,99139.64
2023-03-05T14:42:39.500Z,99137.64
2023-03-05T14:45:19.373Z,99138.51
2023-03-05T14:47:46.933Z,99142.72
2023-03-05T14:50:20.377Z,99146.02
2023-03-05T14:52:49.989Z,99147.44
2023-03-05T14:55:20.568Z,99147.94
2023-03-05T14:57:48.858Z,99140.19
2023-03-05T15:00:18.529Z,99138.19
2023-03-05T15:02:45.794Z,99135.23
2023-03-05T15:05:13.062Z,99125.82
2023-03-05T15:07:40.348Z,99114.52
2023-03-05T15:10:08.756Z,99101.45
2023-03-05T15:12:35.878Z,99105.38
2023-03-05T15:15:03.733Z,99111.89
2023-03-05T15:17:39.764Z,99108.47
2023-03-05T15:20:08.374Z,99112.41
2023-03-05T15:22:36.064Z,99117.50
2023-03-05T15:25:04.159Z,99116.13
2023-03-05T15:27:31.387Z,99110.14
2023-03-05T15:29:59.718Z,99109.91
2023-03-05T15:32:29.166Z,99116.52
2023-03-05T15:34:56.571Z,99119.54
2023-03-05T15:37:23.764Z,99118.15
2023-03-05T15:39:50.802Z,99121.89
2023-03-05T15:42:17.902Z,99118.88
2023-03-05T15:44:44.977Z,99122.45
2023-03-05T15:47:12.303Z,99126.67
2023-03-05T15:49:39.381Z,99123.88
2023-03-05T15:52:06.501Z,99127.30
2023-03-05T15:54:35.546Z,99125.58
2023-03-05T15:57:02.629Z,99127.48
2023-03-05T15:59:29.772Z,99123.77
2023-03-05T16:01:56.895Z,99122.16
2023-03-05T16:04:24.075Z,99117.05
2023-03-05T16:06:51.256Z,99113.52
2023-03-05T16:09:20.428Z,99115.73
2023-03-05T16:11:51.390Z,99114.77
2023-03-05T16:14:23.457Z,99118.58
2023-03-05T16:16:52.689Z,99118.00
2023-03-05T16:19:20.865Z,99118.74
2023-03-05T16:21:48.059Z,99120.64
2023-03-05T16:24:15.142Z,99123.60
2023-03-05T16:26:42.725Z,99122.19
2023-03-05T16:29:10.128Z,99123.66
2023-03-05T16:31:41.621Z,99120.41
2023-03-05T16:34:09.573Z,99118.13
2023-03-05T16:36:36.701Z,99119.91
2023-03-05T16:39:05.515Z,99122.70
2023-03-05T16:41:33.259Z,99128.09
2023-03-05T16:44:00.627Z,99127.76
2023-03-05T16:46:29.958Z,99130.17
2023-03-05T16:48:57.917Z,99129.80
2023-03-05T16:51:26.336Z,99129.34
2023-03-05T16:53:55.001Z,99131.62
2023-03-05T16:56:23.251Z,99133.23
2023-03-05T16:58:53.207Z,99131.75
2023-03-05T17:01:21.723Z,99139.63
2023-03-05T17:03:49.622Z,99139.40
2023-03-05T17:06:20.732Z,99138.14
2023-03-05T17:08:49.651Z,99138.70
2023-03-05T17:11:17.194Z,99144.39
2023-03-05T17:13:47.096Z,99141.45
2023-03-05T17:16:17.461Z,99145.64
2023-03-05T17:18:44.603Z,99142.64
2023-03-05T17:21:12.574Z,99139.32
2023-03-05T17:23:40.466Z,99136.06
2023-03-05T17:26:13.681Z,99136.25
2023-03-05T17:28:41.450Z,99136.31
2023-03-05T17:31:08.624Z,99136.77
2023-03-05T17:33:36.709Z,99133.60
2023-03-05T17:36:04.589Z,99137.52
2023-03-05T17:38:31.992Z,99134.52
2023-03-05T17:40:59.183Z,99132.90
2023-03-05T17:43:26.326Z,99134.66
2023-03-05T17:45:53.486Z,99136.98
2023-03-05T17:48:20.571Z,99135.91
2023-03-05T17:50:47.547Z,99134.63
2023-03-05T17:53:14.639Z,99135.23
2023-03-05T17:55:42.231Z,99132.23
2023-03-05T17:58:09.973Z,99131.14
2023-03-05T18:00:37.610Z,99130.30
2023-03-05T18:03:05.532Z,99129.49
2023-03-05T18:05:32.680Z,99131.02
2023-03-05T18:08:00.875Z,99132.29
2023-03-05T18:10:29.265Z,99130.27
2023-03-05T18:12:56.676Z,99133.23
2023-03-05T18:15:25.370Z,99130.73
2023-03-05T18:17:52.789Z,99131.55
2023-03-05T18:20:24.843Z,99132.16
2023-03-05T18:22:52.245Z,99135.29
2023-03-05T18:25:19.465Z,99135.06
2023-03-05T18:27:46.620Z,99135.79
2023-03-05T18:30:13.905Z,99136.21
2023-03-05T18:32:41.186Z,99135.24
2023-03-05T18:35:09.639Z,99133.14
2023-03-05T18:37:39.892Z,99135.05
2023-03-05T18:40:09.796Z,99135.23
2023-03-05T18:42:37.214Z,99136.20
2023-03-05T18:45:06.282Z,99130.91
2023-03-05T18:47:33.989Z,99134.31
2023-03-05T18:50:01.069Z,99130.29
2023-03-05T18:52:28.270Z,99130.73
2023-03-05T18:54:55.394Z,99132.02
2023-03-05T18:57:22.500Z,99130.17
2023-03-05T18:59:49.598Z,99135.85
2023-03-05T19:02:17.528Z,99131.25
2023-03-05T19:04:44.659Z,99136.11
2023-03-05T19:07:11.828Z,99136.40
2023-03-05T19:09:53.353Z,99133.50
2023-03-05T19:12:22.250Z,99132.40
2023-03-05T19:14:49.394Z,99135.32
2023-03-05T19:17:16.605Z,99134.59
2023-03-05T19:19:44.003Z,99135.92
2023-03-05T19:22:12.457Z,99136.60
2023-03-05T19:24:39.660Z,99134.40
2023-03-05T19:27:15.924Z,99134.27
2023-03-05T19:29:43.800Z,99136.46
2023-03-05T19:32:14.255Z,99135.01
2023-03-05T19:34:41.703Z,99138.29
2023-03-05T19:37:09.442Z,99139.71
2023-03-05T19:39:36.545Z,99139.46
2023-03-05T19:42:04.280Z,99136.92
2023-03-05T19:44:31.608Z,99139.91
2023-03-05T19:46:58.835Z,99136.48
2023-03-05T19:49:26.003Z,99137.27
2023-03-05T19:51:53.017Z,99139.67
2023-03-05T19:54:22.045Z,99139.63
2023-03-05T19:56:50.833Z,99138.58
2023-03-05T19:59:21.220Z,99138.00
2023-03-05T20:01:49.451Z,99135.58
2023-03-05T20:04:20.182Z,99133.83
2023-03-05T20:06:47.482Z,99134.91
2023-03-05T20:09:15.355Z,99129.92
2023-03-05T20:11:42.785Z,99131.45
2023-03-05T20:14:13.104Z,99130.58
2023-03-05T20:16:40.750Z,99130.26
2023-03-05T20:19:10.290Z,99131.14
2023-03-05T20:21:40.719Z,99127.46
2023-03-05T20:24:11.953Z,99124.16
2023-03-05T20:26:40.304Z,99123.95
2023-03-05T20:29:07.740Z,99127.00
2023-03-05T20:31:37.307Z,99126.46
2023-03-05T20:34:07.185Z,99126.06
2023-03-05T20:36:34.870Z,99122.69
2023-03-05T20:39:03.395Z,99119.78
2023-03-05T20:41:31.578Z,99121.64
2023-03-05T20:43:58.652Z,99118.27
2023-03-05T20:46:34.238Z,99118.15
2023-03-05T20:49:02.026Z,99116.21
2023-03-05T20:51:31.653Z,99117.86
2023-03-05T20:54:03.353Z,99115.04
2023-03-05T20:56:32.565Z,99114.10
2023-03-05T20:59:01.356Z,99110.00
2023-03-05T21:01:29.016Z,99111.43
2023-03-05T21:03:57.350Z,99111.57
2023-03-05T21:06:26.125Z,99108.56
2023-03-05T21:08:53.612Z,99111.73
2023-03-05T21:11:21.062Z,99111.98
2023-03-05T21:13:48.379Z,99110.64
2023-03-05T21:16:22.562Z,99107.45
2023-03-05T21:18:51.224Z,99108.66
2023-03-05T21:21:19.150Z,99106.48
2023-03-05T21:23:47.233Z,99107.55
2023-03-05T21:26:14.881Z,99107.40
2023-03-05T21:28:42.166Z,99104.36
2023-03-05T21:31:14.498Z,99104.41
2023-03-05T21:33:42.274Z,99103.41
2023-03-05T21:36:09.938Z,99105.48
2023-03-05T21:38:37.101Z,99104.60
2023-03-05T21:41:05.362Z,99103.73
2023-03-05T21:43:33.063Z,99102.83
2023-03-05T21:46:02.122Z,99100.36
2023-03-05T21:48:29.312Z,99102.80
2023-03-05T21:50:57.351Z,99103.59
2023-03-05T21:53:24.750Z,99107.45
2023-03-05T21:56:15.503Z,99105.50
2023-03-05T21:58:42.618Z,99104.27
2023-03-05T22:01:13.627Z,99100.66
2023-03-05T22:03:40.768Z,99100.56
2023-03-05T22:06:12.204Z,99100.34
2023-03-05T22:08:39.312Z,99099.06
2023-03-05T22:11:14.941Z,99094.02
2023-03-05T22:13:42.966Z,99094.86
2023-03-05T22:16:10.620Z,99095.92
2023-03-05T22:18:37.751Z,99091.73
2023-03-05T22:21:05.250Z,99096.41
2023-03-05T22:23:36.868Z,99093.80
2023-03-05T22:26:08.043Z,99087.70
2023-03-05T22:28:36.301Z,99089.02
2023-03-05T22:31:03.575Z,99084.34
2023-03-05T22:33:32.064Z,99083.10
2023-03-05T22:35:59.583Z,99081.23
2023-03-05T22:38:26.852Z,99081.67
2023-03-05T22:40:54.051Z,99083.05
2023-03-05T22:43:21.540Z,99082.87
2023-03-05T22:45:49.049Z,99082.80
2023-03-05T22:48:16.558Z,99076.74
2023-03-05T22:50:44.492Z,99081.27
2023-03-05T22:53:12.208Z,99077.26
2023-03-05T22:55:40.643Z,99079.98
2023-03-05T22:58:07.846Z,99081.98
2023-03-05T23:00:34.907Z,99081.65
2023-03-05T23:03:02.338Z,99078.80
2023-03-05T23:05:29.486Z,99080.26
2023-03-05T23:07:56.606Z,99072.36
2023-03-05T23:10:27.242Z,99069.88
2023-03-05T23:12:56.516Z,99072.28
2023-03-05T23:15:31.008Z,99067.84
2023-03-05T23:17:58.655Z,99070.52
2023-03-05T23:20:28.891Z,99069.78
2023-03-05T23:22:56.460Z,99065.27
2023-03-05T23:25:26.047Z,99063.90
2023-03-05T23:27:53.808Z,99062.02
2023-03-05T23:30:23.195Z,99063.80
2023-03-05T23:33:04.215Z,99063.37
2023-03-05T23:35:34.486Z,99060.28
2023-03-05T23:38:04.206Z,99055.52
2023-03-05T23:40:36.570Z,99058.52
2023-03-05T23:43:04.666Z,99054.25
2023-03-05T23:45:32.303Z,99051.84
2023-03-05T23:47:59.552Z,99051.25
2023-03-05T23:50:38.563Z,99053.46
2023-03-05T23:53:13.000Z,99051.06
2023-03-05T23:55:43.288Z,99055.06
2023-03-05T23:58:11.466Z,99054.17
